createdAt,value
2023-03-11T00:04:15.153Z,73168.97
2023-03-11T00:14:19.468Z,73168.97
2023-03-11T00:24:22.072Z,73175.03
2023-03-11T00:34:25.896Z,73170.97
2023-03-11T00:44:29.289Z,73168.97
2023-03-11T00:54:32.919Z,73166.94
2023-03-11T01:04:39.977Z,73166.94
2023-03-11T01:14:47.617Z,73185.16
2023-03-11T01:24:54.183Z,73203.34
2023-03-11T01:34:59.825Z,73229.63
2023-03-11T01:45:02.031Z,73233.69
2023-03-11T01:55:07.994Z,73247.84
2023-03-11T02:05:19.351Z,73243.78
2023-03-11T02:15:25.863Z,73253.91
2023-03-11T02:25:48.179Z,73249.88
2023-03-11T02:35:57.869Z,73245.81
2023-03-11T02:46:02.321Z,73239.75
2023-03-11T02:56:09.156Z,73241.78
2023-03-11T03:06:12.510Z,73243.78
2023-03-11T03:16:14.977Z,73225.59
2023-03-11T03:26:27.221Z,73241.78
2023-03-11T03:36:33.641Z,73237.72
2023-03-11T03:46:39.774Z,73215.47
2023-03-11T03:56:46.540Z,73199.31
2023-03-11T04:06:50.190Z,73177.06
2023-03-11T04:16:57.418Z,73168.97
2023-03-11T04:27:02.041Z,73166.94
2023-03-11T04:37:07.756Z,73179.06
2023-03-11T04:47:15.297Z,73205.38
2023-03-11T04:57:21.965Z,73205.38
2023-03-11T05:07:32.050Z,73215.47
2023-03-11T05:17:41.883Z,73209.41
2023-03-11T05:27:48.963Z,73209.41
2023-03-11T05:38:01.784Z,73215.47
2023-03-11T05:48:05.747Z,73225.59
2023-03-11T05:58:14.960Z,73205.38
2023-03-11T06:08:25.729Z,73207.38
2023-03-11T06:18:28.342Z,73201.31
2023-03-11T06:28:35.146Z,73201.31
2023-03-11T06:38:40.555Z,73201.31
2023-03-11T06:48:51.992Z,73177.06
2023-03-11T06:59:00.960Z,73160.88
2023-03-11T07:09:06.809Z,73148.75
2023-03-11T07:19:13.014Z,73148.75
2023-03-11T07:29:15.480Z,73154.81
2023-03-11T07:39:20.567Z,73166.94
2023-03-11T07:49:34.119Z,73183.13
2023-03-11T07:59:38.509Z,73173.00
2023-03-11T08:09:41.124Z,73205.38
2023-03-11T08:19:47.454Z,73221.53
2023-03-11T08:29:51.025Z,73243.78
2023-03-11T08:39:55.546Z,73282.22
2023-03-11T08:50:01.383Z,73298.41
2023-03-11T09:00:11.549Z,73310.53
2023-03-11T09:10:19.000Z,73334.81
2023-03-11T09:20:27.084Z,73342.91
2023-03-11T09:30:32.700Z,73379.31
2023-03-11T09:40:52.250Z,73444.03
2023-03-11T09:51:21.788Z,73646.31
2023-03-11T10:01:33.485Z,73741.38
2023-03-11T10:11:37.753Z,73830.38
2023-03-11T10:22:04.336Z,73957.81
2023-03-11T10:32:27.738Z,74006.38
2023-03-11T10:42:30.265Z,74069.09
2023-03-11T10:52:44.261Z,74137.88
2023-03-11T11:02:58.385Z,74204.63
2023-03-11T11:13:34.896Z,74257.22
2023-03-11T11:23:42.267Z,74289.59
2023-03-11T11:33:54.122Z,74305.78
2023-03-11T11:44:00.743Z,74352.31
2023-03-11T11:54:11.187Z,74376.59
2023-03-11T12:04:47.298Z,74410.97
2023-03-11T12:15:18.458Z,74459.53
2023-03-11T12:25:35.657Z,74524.28
2023-03-11T12:35:53.615Z,74568.78
2023-03-11T12:45:59.659Z,74617.34
2023-03-11T12:56:11.836Z,74657.81
2023-03-11T13:07:07.819Z,74690.19
2023-03-11T13:17:40.313Z,74712.44
2023-03-11T13:27:44.364Z,74771.09
2023-03-11T13:37:50.731Z,74807.53
2023-03-11T13:48:03.775Z,74845.97
2023-03-11T13:58:39.278Z,74848.00
2023-03-11T14:08:57.443Z,74876.31
2023-03-11T14:19:18.174Z,74880.38
2023-03-11T14:29:30.696Z,74860.13
2023-03-11T14:39:34.908Z,74896.56
2023-03-11T14:49:42.909Z,74900.59
2023-03-11T14:59:49.652Z,74928.94
2023-03-11T15:09:55.492Z,74935.00
2023-03-11T15:20:01.334Z,74965.34
2023-03-11T15:30:19.980Z,74973.44
2023-03-11T15:40:43.903Z,74973.44
2023-03-11T15:51:01.109Z,75005.81
2023-03-11T16:01:06.192Z,75022.00
2023-03-11T16:11:11.228Z,75042.25
2023-03-11T16:21:16.643Z,75052.38
2023-03-11T16:31:21.187Z,75074.63
2023-03-11T16:41:23.470Z,75094.84
2023-03-11T16:51:28.281Z,75123.19
2023-03-11T17:01:32.755Z,75157.59
2023-03-11T17:11:34.912Z,75171.75
2023-03-11T17:21:40.085Z,75208.16
2023-03-11T17:31:42.501Z,75220.31
2023-03-11T17:41:50.050Z,75228.41
2023-03-11T17:51:53.357Z,75234.47
2023-03-11T18:01:56.124Z,75244.59
2023-03-11T18:12:00.447Z,75270.91
2023-03-11T18:22:05.019Z,75297.22
2023-03-11T18:32:12.016Z,75319.47
2023-03-11T18:42:22.039Z,75343.75
2023-03-11T18:52:26.551Z,75382.19
2023-03-11T19:02:30.870Z,75398.38
2023-03-11T19:12:40.154Z,75406.47
2023-03-11T19:22:42.298Z,75422.69
2023-03-11T19:32:47.612Z,75465.16
2023-03-11T19:42:59.220Z,75477.31
2023-03-11T19:53:04.428Z,75495.53
2023-03-11T20:03:06.565Z,75511.72
2023-03-11T20:13:12.522Z,75523.84
2023-03-11T20:23:20.818Z,75536.00
2023-03-11T20:33:24.194Z,75560.28
2023-03-11T20:43:26.374Z,75560.28
2023-03-11T20:53:36.571Z,75584.56
2023-03-11T21:03:42.856Z,75576.47
2023-03-11T21:13:46.252Z,75574.44
2023-03-11T21:23:50.647Z,75570.41
2023-03-11T21:33:57.770Z,75570.41
2023-03-11T21:44:02.782Z,75592.66
2023-03-11T21:54:07.756Z,75612.91
2023-03-11T22:04:13.135Z,75606.84
2023-03-11T22:14:15.864Z,75604.81
2023-03-11T22:24:20.606Z,75604.81
2023-03-11T22:34:27.110Z,75621.00
2023-03-11T22:44:29.557Z,75645.28
2023-03-11T22:54:35.527Z,75653.38
2023-03-11T23:04:39.125Z,75653.38
2023-03-11T23:14:46.449Z,75669.56
2023-03-11T23:24:48.599Z,75683.72
2023-03-11T23:34:54.507Z,75699.91
2023-03-11T23:45:06.407Z,75710.03
2023-03-11T23:55:17.639Z,75718.13
